Time;durP1;ratioP1;P1;durP2;ratioP2;P2;SDS_P1;SDS_P2;PMS_P1;PMS_P2;Temp;Humidity;BMP_temperature;BMP_pressure;BME280_temperature;BME280_humidity;BME280_pressure;Samples;Min_cycle;Max_cycle;Signal;HPM_P1;HPM_P2
2021/03/16 00:00:36;;;;;;;13.52;4.07;;;9.10;96.70;;;;;;4979185;28;20061;-75
2021/03/16 00:03:14;;;;;;;8.57;3.30;;;9.20;96.70;;;;;;4981997;28;20065;-75
2021/03/16 00:05:50;;;;;;;10.95;3.40;;;9.20;96.70;;;;;;4976846;28;20414;-75
2021/03/16 00:08:18;;;;;;;9.05;3.13;;;9.20;96.70;;;;;;4959241;28;20053;-74
2021/03/16 00:10:45;;;;;;;10.93;3.20;;;9.10;96.70;;;;;;4984663;28;20513;-74
2021/03/16 00:13:12;;;;;;;10.20;3.30;;;9.00;96.70;;;;;;4975708;28;20046;-74
2021/03/16 00:15:40;;;;;;;12.32;2.85;;;9.10;96.70;;;;;;4980594;28;20046;-74
2021/03/16 00:18:13;;;;;;;11.95;3.53;;;8.90;96.70;;;;;;4978332;28;20058;-74
2021/03/16 00:20:43;;;;;;;11.57;3.63;;;8.90;96.70;;;;;;4978258;28;20046;-75
2021/03/16 00:23:11;;;;;;;12.93;4.63;;;8.90;96.70;;;;;;4979803;28;20509;-75
2021/03/16 00:25:39;;;;;;;12.68;3.15;;;8.80;96.70;;;;;;4976604;28;20055;-74
2021/03/16 00:28:07;;;;;;;9.25;3.10;;;8.80;96.70;;;;;;4980649;28;20475;-75
2021/03/16 00:30:35;;;;;;;5.47;2.30;;;8.80;96.70;;;;;;4970004;28;20113;-75
2021/03/16 00:33:03;;;;;;;7.15;2.80;;;8.80;96.70;;;;;;4975559;28;20053;-75
2021/03/16 00:35:30;;;;;;;7.00;3.00;;;8.80;96.70;;;;;;4978091;28;20045;-75
2021/03/16 00:37:58;;;;;;;7.57;3.03;;;8.80;96.70;;;;;;4960739;28;20076;-74
2021/03/16 00:40:26;;;;;;;10.30;2.88;;;8.80;96.70;;;;;;4981754;28;20058;-75
2021/03/16 00:42:53;;;;;;;9.90;2.90;;;8.60;96.70;;;;;;4978182;28;20048;-75
2021/03/16 00:45:20;;;;;;;13.85;6.55;;;8.40;96.70;;;;;;4981148;28;20492;-75
2021/03/16 00:47:47;;;;;;;10.20;3.90;;;8.20;96.70;;;;;;4978834;28;20130;-75
2021/03/16 00:50:15;;;;;;;9.80;3.45;;;8.10;96.70;;;;;;4977074;28;20378;-74
2021/03/16 00:52:44;;;;;;;12.15;3.92;;;8.20;96.70;;;;;;4979398;28;20034;-75
2021/03/16 00:55:19;;;;;;;9.60;3.70;;;8.20;96.70;;;;;;4967747;28;20517;-75
2021/03/16 00:57:47;;;;;;;10.15;3.50;;;8.20;96.70;;;;;;4973624;28;20058;-74
2021/03/16 01:00:16;;;;;;;12.68;3.58;;;8.20;96.70;;;;;;4971992;28;20133;-75
2021/03/16 01:02:43;;;;;;;10.98;3.58;;;8.20;96.70;;;;;;4973466;28;20261;-75
2021/03/16 01:05:12;;;;;;;11.48;3.70;;;8.20;96.70;;;;;;4979625;28;20065;-75
2021/03/16 01:07:39;;;;;;;9.15;3.55;;;8.20;96.70;;;;;;4960649;28;20096;-75
2021/03/16 01:10:10;;;;;;;8.75;3.03;;;8.30;96.70;;;;;;4974646;28;20100;-75
2021/03/16 01:12:38;;;;;;;8.93;3.53;;;8.20;96.70;;;;;;4975539;28;20051;-75
2021/03/16 01:15:07;;;;;;;13.05;3.70;;;8.10;96.70;;;;;;4975948;28;20066;-75
2021/03/16 01:17:35;;;;;;;10.40;3.67;;;8.10;96.70;;;;;;4978379;28;20642;-74
2021/03/16 01:20:08;;;;;;;9.93;3.75;;;8.20;96.70;;;;;;4992416;28;20124;-74
2021/03/16 01:22:35;;;;;;;11.85;4.82;;;8.10;96.70;;;;;;4977740;28;20073;-75
2021/03/16 01:25:03;;;;;;;14.77;4.63;;;8.20;96.70;;;;;;4973417;28;20046;-74
2021/03/16 01:27:30;;;;;;;13.90;4.38;;;8.20;96.70;;;;;;4962122;28;20404;-74
2021/03/16 01:29:59;;;;;;;14.18;4.07;;;8.20;96.70;;;;;;4959844;28;20058;-75
2021/03/16 01:32:26;;;;;;;17.00;5.35;;;8.20;96.70;;;;;;4960385;28;20046;-75
2021/03/16 01:34:53;;;;;;;8.73;3.90;;;8.30;96.70;;;;;;4961034;28;20263;-74
2021/03/16 01:37:21;;;;;;;11.75;4.22;;;8.30;96.70;;;;;;4996053;28;20046;-75
2021/03/16 01:39:48;;;;;;;9.88;4.72;;;8.30;96.70;;;;;;4968923;28;20042;-74
2021/03/16 01:42:16;;;;;;;9.00;4.40;;;8.30;96.70;;;;;;4976528;28;20408;-75
2021/03/16 01:44:44;;;;;;;13.68;4.57;;;8.20;96.70;;;;;;4975051;28;20042;-75
2021/03/16 01:47:14;;;;;;;8.80;3.58;;;8.10;96.70;;;;;;4981420;28;20492;-74
2021/03/16 01:49:42;;;;;;;11.45;4.13;;;8.00;96.70;;;;;;4974160;28;20072;-75
2021/03/16 01:52:11;;;;;;;8.95;3.22;;;8.10;96.70;;;;;;4975921;28;20501;-75
2021/03/16 01:54:41;;;;;;;12.48;3.38;;;8.10;96.70;;;;;;4976886;28;20046;-74
2021/03/16 01:57:10;;;;;;;7.90;2.85;;;8.00;96.70;;;;;;4962455;28;20863;-75
2021/03/16 01:59:49;;;;;;;7.50;3.00;;;7.90;96.70;;;;;;4975400;28;20062;-74
2021/03/16 02:02:27;;;;;;;10.25;3.17;;;8.00;96.70;;;;;;4975217;28;20034;-75
2021/03/16 02:05:06;;;;;;;8.32;2.85;;;8.00;96.70;;;;;;4963936;28;20042;-75
2021/03/16 02:07:52;;;;;;;9.35;2.75;;;8.00;96.70;;;;;;4975468;28;20051;-75
2021/03/16 02:10:35;;;;;;;6.53;2.30;;;8.00;96.70;;;;;;4969448;28;20073;-74
2021/03/16 02:13:20;;;;;;;10.50;2.53;;;8.00;96.70;;;;;;4971538;28;20505;-74
2021/03/16 02:15:59;;;;;;;7.18;2.22;;;7.90;96.70;;;;;;4974297;28;20484;-75
2021/03/16 02:18:41;;;;;;;7.13;2.40;;;7.90;96.70;;;;;;4961960;28;20050;-75
2021/03/16 02:21:20;;;;;;;10.00;2.85;;;7.80;96.70;;;;;;4994087;28;20066;-74
2021/03/16 02:24:18;;;;;;;9.70;2.63;;;7.90;96.70;;;;;;4978359;28;20117;-75
2021/03/16 02:27:07;;;;;;;9.23;2.65;;;7.60;96.70;;;;;;4940257;28;20079;-75
2021/03/16 02:29:48;;;;;;;8.82;2.72;;;7.80;96.70;;;;;;4938195;28;20058;-74
2021/03/16 02:32:27;;;;;;;9.63;2.60;;;7.80;96.70;;;;;;4948134;28;20035;-74
2021/03/16 02:35:06;;;;;;;10.18;2.70;;;7.70;96.70;;;;;;4938626;28;20043;-75
2021/03/16 02:37:44;;;;;;;6.68;2.78;;;7.70;96.70;;;;;;4936837;28;20116;-75
2021/03/16 02:40:22;;;;;;;10.48;3.50;;;7.70;96.70;;;;;;4934714;28;20035;-74
2021/03/16 02:42:59;;;;;;;14.98;3.70;;;7.70;96.70;;;;;;4918072;29;20376;-74
2021/03/16 02:45:37;;;;;;;11.07;3.10;;;7.70;96.70;;;;;;4925843;29;20063;-75
2021/03/16 02:48:15;;;;;;;9.80;3.80;;;7.70;96.70;;;;;;4936241;28;20180;-75
2021/03/16 02:50:52;;;;;;;14.05;4.80;;;7.80;96.70;;;;;;4940733;28;20449;-75
2021/03/16 02:53:30;;;;;;;13.73;4.50;;;8.00;96.70;;;;;;4936991;28;20570;-75
2021/03/16 02:56:08;;;;;;;11.07;3.65;;;7.70;96.70;;;;;;4938156;28;20429;-75
2021/03/16 02:58:46;;;;;;;14.07;4.40;;;7.70;96.70;;;;;;4935918;28;20055;-74
2021/03/16 03:01:25;;;;;;;11.35;3.38;;;7.60;96.70;;;;;;4941649;28;20027;-74
2021/03/16 03:04:04;;;;;;;10.90;3.85;;;7.70;96.70;;;;;;4935062;28;20099;-74
2021/03/16 03:06:43;;;;;;;11.27;3.22;;;7.80;96.70;;;;;;4934220;28;20131;-74
2021/03/16 03:09:20;;;;;;;8.70;2.90;;;7.80;96.70;;;;;;4937084;28;20062;-75
2021/03/16 03:11:57;;;;;;;8.20;3.15;;;7.80;96.70;;;;;;4921064;28;20051;-74
2021/03/16 03:14:35;;;;;;;5.68;2.50;;;7.70;96.70;;;;;;4935015;28;20039;-74
2021/03/16 03:17:18;;;;;;;4.82;2.35;;;7.80;96.70;;;;;;4934344;28;20035;-74
2021/03/16 03:19:55;;;;;;;8.88;2.65;;;7.70;96.70;;;;;;4933875;28;20493;-75
2021/03/16 03:22:38;;;;;;;9.82;2.63;;;7.60;96.70;;;;;;4934655;28;20288;-74
2021/03/16 03:25:20;;;;;;;7.25;2.00;;;7.60;96.70;;;;;;4953248;28;20456;-74
2021/03/16 03:28:01;;;;;;;7.78;2.15;;;7.50;96.70;;;;;;4973029;28;20403;-75
2021/03/16 03:30:38;;;;;;;11.68;2.28;;;7.40;96.70;;;;;;4971035;28;20061;-74
2021/03/16 03:33:19;;;;;;;7.32;2.15;;;7.50;96.70;;;;;;4979691;28;20042;-74
2021/03/16 03:35:57;;;;;;;9.48;2.72;;;7.50;96.70;;;;;;4975563;28;20054;-75
2021/03/16 03:38:36;;;;;;;6.47;2.30;;;7.40;96.70;;;;;;4967897;28;20121;-76
2021/03/16 03:41:13;;;;;;;10.27;1.98;;;7.30;96.70;;;;;;4977440;28;20030;-76
2021/03/16 03:43:50;;;;;;;6.13;1.75;;;7.30;96.70;;;;;;4979198;28;20042;-76
2021/03/16 03:46:28;;;;;;;7.75;2.10;;;7.30;96.70;;;;;;4977943;28;20041;-76
2021/03/16 03:49:08;;;;;;;9.02;2.45;;;7.30;96.70;;;;;;4965580;28;20165;-76
2021/03/16 03:51:47;;;;;;;7.25;1.83;;;7.20;96.70;;;;;;4963268;28;20493;-76
2021/03/16 03:54:24;;;;;;;8.52;2.10;;;7.10;96.70;;;;;;4976312;28;20027;-76
2021/03/16 03:57:03;;;;;;;8.02;2.13;;;7.30;96.70;;;;;;4986564;28;20085;-75
2021/03/16 03:59:42;;;;;;;4.60;1.75;;;7.30;96.70;;;;;;4965110;28;20046;-76
2021/03/16 04:02:19;;;;;;;8.90;2.50;;;7.40;96.70;;;;;;4980179;28;20054;-76
2021/03/16 04:04:59;;;;;;;8.68;2.17;;;7.30;96.70;;;;;;4969616;28;20055;-76
2021/03/16 04:07:37;;;;;;;11.43;2.22;;;7.20;96.70;;;;;;4964130;28;20121;-76
2021/03/16 04:10:15;;;;;;;7.13;2.65;;;7.30;96.70;;;;;;4977139;28;20103;-76
2021/03/16 04:12:53;;;;;;;7.47;2.47;;;7.10;96.70;;;;;;4981821;28;20037;-76
2021/03/16 04:15:32;;;;;;;5.95;2.47;;;7.10;96.70;;;;;;4964506;28;20045;-76
2021/03/16 04:18:10;;;;;;;8.30;2.20;;;7.10;96.70;;;;;;4979709;28;20045;-76
2021/03/16 04:20:49;;;;;;;8.05;2.17;;;7.00;96.70;;;;;;4968516;28;20048;-77
2021/03/16 04:23:27;;;;;;;7.88;2.28;;;6.90;96.70;;;;;;4976588;28;20117;-76
2021/03/16 04:26:04;;;;;;;6.53;1.98;;;6.80;96.70;;;;;;4963700;28;20062;-76
2021/03/16 04:28:42;;;;;;;9.20;2.00;;;6.70;96.70;;;;;;4981065;28;20038;-76
2021/03/16 04:31:19;;;;;;;7.20;1.98;;;6.80;96.70;;;;;;4982307;28;20116;-76
2021/03/16 04:33:56;;;;;;;10.73;2.60;;;6.90;96.70;;;;;;4978277;28;20177;-75
2021/03/16 04:36:33;;;;;;;8.43;1.65;;;6.90;96.70;;;;;;4978311;28;20097;-76
2021/03/16 04:39:11;;;;;;;7.15;2.25;;;6.80;96.70;;;;;;4972076;28;20078;-76
2021/03/16 04:41:48;;;;;;;6.80;1.90;;;6.80;96.70;;;;;;4974919;28;20121;-76
2021/03/16 04:44:25;;;;;;;9.75;2.50;;;6.90;96.70;;;;;;4963645;28;20050;-76
2021/03/16 04:47:02;;;;;;;12.13;2.35;;;6.90;96.70;;;;;;4979956;28;20038;-76
2021/03/16 04:49:40;;;;;;;6.82;2.20;;;6.90;96.70;;;;;;4968216;28;20058;-76
2021/03/16 04:52:18;;;;;;;8.77;2.67;;;6.90;96.70;;;;;;4979026;28;20487;-76
2021/03/16 04:54:55;;;;;;;7.18;2.35;;;6.90;96.70;;;;;;4978612;28;20046;-76
2021/03/16 04:57:32;;;;;;;8.82;2.70;;;6.90;96.70;;;;;;4975091;28;20042;-76
2021/03/16 05:00:10;;;;;;;11.43;2.80;;;6.80;96.70;;;;;;4963715;28;20047;-76
2021/03/16 05:02:47;;;;;;;5.75;2.55;;;6.90;96.70;;;;;;4975275;28;20046;-76
2021/03/16 05:05:25;;;;;;;9.23;3.13;;;6.70;96.70;;;;;;4974143;28;20142;-75
2021/03/16 05:08:03;;;;;;;6.82;2.65;;;6.80;96.70;;;;;;4978729;28;20479;-76
2021/03/16 05:10:44;;;;;;;7.82;2.67;;;6.90;96.70;;;;;;4979255;28;20041;-76
2021/03/16 05:13:21;;;;;;;12.30;2.60;;;6.80;96.70;;;;;;4976946;28;20038;-76
2021/03/16 05:15:58;;;;;;;7.70;2.80;;;6.90;96.70;;;;;;4974445;28;20082;-76
2021/03/16 05:18:36;;;;;;;8.70;2.72;;;6.90;96.70;;;;;;4975308;28;20341;-76
2021/03/16 05:21:13;;;;;;;6.28;2.20;;;6.70;96.70;;;;;;4968782;28;21459;-76
2021/03/16 05:23:51;;;;;;;7.85;2.75;;;6.60;96.70;;;;;;4978739;28;20802;-76
2021/03/16 05:26:28;;;;;;;8.25;2.47;;;6.60;96.70;;;;;;4973879;28;20057;-76
2021/03/16 05:29:12;;;;;;;9.93;2.83;;;6.60;96.70;;;;;;4976793;28;20595;-76
2021/03/16 05:31:49;;;;;;;11.60;3.88;;;6.50;96.70;;;;;;4975995;28;20046;-76
2021/03/16 05:34:26;;;;;;;8.98;2.70;;;6.50;96.70;;;;;;4976187;28;20042;-76
2021/03/16 05:37:03;;;;;;;11.32;3.38;;;6.40;96.70;;;;;;4976564;28;20149;-76
2021/03/16 05:39:41;;;;;;;7.47;2.58;;;6.60;96.70;;;;;;4976367;28;20128;-75
2021/03/16 05:42:18;;;;;;;8.93;2.90;;;6.60;96.70;;;;;;4977996;28;20042;-76
2021/03/16 05:44:58;;;;;;;7.57;2.97;;;6.60;96.70;;;;;;4974551;28;20089;-76
2021/03/16 05:47:37;;;;;;;9.98;3.30;;;6.50;96.70;;;;;;4979640;28;20042;-76
2021/03/16 05:50:16;;;;;;;10.50;3.30;;;6.40;96.70;;;;;;4975532;28;20046;-76
2021/03/16 05:52:54;;;;;;;10.88;3.08;;;6.40;96.70;;;;;;4977515;28;20568;-74
2021/03/16 05:55:32;;;;;;;13.15;4.25;;;6.60;96.70;;;;;;4974246;28;20181;-73
2021/03/16 05:58:13;;;;;;;8.65;2.90;;;6.60;96.70;;;;;;4972097;28;20134;-73
2021/03/16 06:00:50;;;;;;;8.77;3.08;;;6.70;96.70;;;;;;4963845;28;20057;-74
2021/03/16 06:03:27;;;;;;;8.85;2.25;;;6.70;96.70;;;;;;4960692;28;20359;-74
2021/03/16 06:06:04;;;;;;;9.10;2.85;;;6.60;96.70;;;;;;4975380;28;20138;-74
2021/03/16 06:08:41;;;;;;;10.77;2.58;;;6.70;96.70;;;;;;4978512;28;20061;-73
2021/03/16 06:11:19;;;;;;;7.18;2.90;;;6.70;96.70;;;;;;4974469;28;20128;-73
2021/03/16 06:13:56;;;;;;;8.38;2.85;;;6.70;96.70;;;;;;4973389;28;20548;-74
2021/03/16 06:16:37;;;;;;;11.75;4.03;;;6.80;96.70;;;;;;4979387;28;20062;-73
2021/03/16 06:19:24;;;;;;;12.13;4.72;;;6.90;96.70;;;;;;4975706;28;20302;-73
2021/03/16 06:22:02;;;;;;;9.82;3.92;;;7.00;96.70;;;;;;4995095;28;20051;-74
2021/03/16 06:24:44;;;;;;;9.45;3.92;;;7.10;96.70;;;;;;4977726;28;20061;-73
2021/03/16 06:27:25;;;;;;;8.32;3.65;;;7.00;96.70;;;;;;4965170;28;20065;-74
2021/03/16 06:30:02;;;;;;;7.22;3.13;;;7.00;96.70;;;;;;4979760;28;20427;-74
2021/03/16 06:32:40;;;;;;;12.95;5.47;;;7.10;96.70;;;;;;4976375;28;20141;-73
2021/03/16 06:35:17;;;;;;;9.63;4.93;;;7.20;96.70;;;;;;4972672;28;20034;-73
2021/03/16 06:38:03;;;;;;;12.18;4.97;;;7.40;96.70;;;;;;4978001;28;20042;-73
2021/03/16 06:40:40;;;;;;;17.83;6.88;;;7.30;96.70;;;;;;4975630;28;20468;-73
2021/03/16 06:43:23;;;;;;;17.70;7.70;;;7.50;96.70;;;;;;4975717;28;20057;-74
2021/03/16 06:46:00;;;;;;;20.98;10.27;;;7.50;96.70;;;;;;4979436;28;20042;-74
2021/03/16 06:48:38;;;;;;;19.25;8.85;;;7.40;96.70;;;;;;4973347;28;20137;-73
2021/03/16 06:51:15;;;;;;;17.92;7.03;;;7.40;96.70;;;;;;4962053;28;20493;-74
2021/03/16 06:53:52;;;;;;;16.35;7.22;;;7.40;96.70;;;;;;4963353;28;20070;-73
2021/03/16 06:56:29;;;;;;;13.65;5.65;;;7.50;96.70;;;;;;4974139;28;20120;-73
2021/03/16 06:59:20;;;;;;;14.95;4.80;;;7.60;96.70;;;;;;4979624;28;20036;-74
2021/03/16 07:01:57;;;;;;;15.48;5.20;;;7.70;96.70;;;;;;4971536;28;20042;-73
2021/03/16 07:04:42;;;;;;;17.63;5.43;;;7.70;96.70;;;;;;4981073;28;20471;-73
2021/03/16 07:07:22;;;;;;;14.25;5.40;;;7.90;96.70;;;;;;4978505;28;20144;-73
2021/03/16 07:10:01;;;;;;;16.55;6.18;;;7.90;96.70;;;;;;4982376;28;20257;-73
2021/03/16 07:12:38;;;;;;;16.88;5.55;;;7.90;96.70;;;;;;4994412;28;20457;-72
2021/03/16 07:15:17;;;;;;;13.07;6.05;;;8.10;96.70;;;;;;4980880;28;20331;-74
2021/03/16 07:17:57;;;;;;;12.15;6.15;;;8.00;96.70;;;;;;4977769;28;20050;-74
2021/03/16 07:20:35;;;;;;;13.05;5.82;;;8.10;96.70;;;;;;4978293;28;20046;-73
2021/03/16 07:23:14;;;;;;;12.13;5.00;;;8.10;96.70;;;;;;4980286;28;20101;-74
2021/03/16 07:25:53;;;;;;;15.80;5.40;;;8.20;96.70;;;;;;4980936;28;20784;-74
2021/03/16 07:28:32;;;;;;;13.77;5.28;;;8.30;96.70;;;;;;4981981;28;20503;-74
2021/03/16 07:31:10;;;;;;;14.63;5.50;;;8.20;96.70;;;;;;4963800;28;20049;-73
2021/03/16 07:33:51;;;;;;;14.88;4.97;;;8.10;96.70;;;;;;4974859;28;20061;-74
2021/03/16 07:36:30;;;;;;;12.43;4.85;;;8.20;96.70;;;;;;4978330;28;20030;-73
2021/03/16 07:39:10;;;;;;;8.77;4.38;;;8.40;96.70;;;;;;4981755;28;20046;-74
2021/03/16 07:41:48;;;;;;;10.55;3.88;;;8.20;96.70;;;;;;4977885;28;20433;-74
2021/03/16 07:44:26;;;;;;;11.23;4.80;;;8.10;96.70;;;;;;4979546;28;20038;-73
2021/03/16 07:47:04;;;;;;;13.63;4.93;;;8.10;96.70;;;;;;4978117;28;20485;-73
2021/03/16 07:49:41;;;;;;;9.52;4.00;;;8.20;96.70;;;;;;4976902;28;20585;-74
2021/03/16 07:52:19;;;;;;;14.68;4.78;;;8.30;96.70;;;;;;4978997;28;20042;-74
2021/03/16 07:54:57;;;;;;;13.07;4.00;;;8.30;96.70;;;;;;4979079;28;20042;-73
2021/03/16 07:57:35;;;;;;;14.88;3.80;;;8.30;96.70;;;;;;4974022;28;20030;-74
2021/03/16 08:00:15;;;;;;;12.20;5.35;;;8.40;96.70;;;;;;4977432;28;20441;-73
2021/03/16 08:02:58;;;;;;;10.52;3.72;;;8.50;96.70;;;;;;4974384;28;20047;-75
2021/03/16 08:05:43;;;;;;;10.88;4.20;;;8.50;96.70;;;;;;4976843;28;20078;-75
2021/03/16 08:08:21;;;;;;;11.88;5.07;;;8.60;96.70;;;;;;4975855;28;20042;-74
2021/03/16 08:11:06;;;;;;;13.70;5.75;;;8.70;96.70;;;;;;4979069;28;20073;-74
2021/03/16 08:13:54;;;;;;;10.35;5.00;;;8.80;96.70;;;;;;4968576;28;20585;-75
2021/03/16 08:16:36;;;;;;;9.48;4.60;;;8.90;96.70;;;;;;4996163;28;20116;-75
2021/03/16 08:19:18;;;;;;;16.20;5.25;;;9.00;96.70;;;;;;4962763;28;20050;-75
2021/03/16 08:21:57;;;;;;;13.43;6.00;;;9.10;96.70;;;;;;4966352;28;20046;-74
2021/03/16 08:24:39;;;;;;;12.00;5.72;;;9.30;96.70;;;;;;4976860;28;20064;-75
2021/03/16 08:27:17;;;;;;;10.98;5.15;;;9.50;96.70;;;;;;4959189;28;20038;-75
2021/03/16 08:29:58;;;;;;;13.55;5.10;;;9.60;96.70;;;;;;4976946;28;20046;-74
2021/03/16 08:32:36;;;;;;;14.60;5.15;;;9.70;96.70;;;;;;4972214;28;20050;-73
2021/03/16 08:35:17;;;;;;;12.88;4.70;;;9.90;96.70;;;;;;4976378;28;20086;-77
2021/03/16 08:37:55;;;;;;;13.68;5.70;;;10.10;96.70;;;;;;4961751;28;20690;-75
2021/03/16 08:40:32;;;;;;;11.52;5.25;;;10.20;96.70;;;;;;4961627;28;20054;-76
2021/03/16 08:43:10;;;;;;;11.75;4.35;;;10.30;96.70;;;;;;4960332;28;20065;-75
2021/03/16 08:45:47;;;;;;;12.45;5.82;;;10.50;96.70;;;;;;4972828;28;20105;-74
2021/03/16 08:48:25;;;;;;;12.88;5.10;;;10.60;96.70;;;;;;4974439;28;20065;-76
2021/03/16 08:51:06;;;;;;;12.80;5.43;;;10.70;96.70;;;;;;4980073;28;20101;-76
2021/03/16 08:53:46;;;;;;;15.45;4.55;;;10.80;96.70;;;;;;4977570;28;20345;-78
2021/03/16 08:56:24;;;;;;;14.60;5.90;;;10.90;96.70;;;;;;4957871;28;20405;-76
2021/03/16 08:59:03;;;;;;;14.77;5.38;;;11.00;96.70;;;;;;4976020;28;20606;-76
2021/03/16 09:01:51;;;;;;;12.35;4.95;;;11.10;96.70;;;;;;4976148;28;20046;-77
2021/03/16 09:04:34;;;;;;;12.10;5.28;;;11.20;96.70;;;;;;4957939;28;20461;-76
2021/03/16 09:07:19;;;;;;;10.50;4.93;;;11.30;96.70;;;;;;4974853;28;20030;-76
2021/03/16 09:10:03;;;;;;;14.02;5.10;;;11.40;96.70;;;;;;4977792;28;20046;-76
2021/03/16 09:12:41;;;;;;;13.20;5.18;;;11.60;96.70;;;;;;4960805;28;20043;-75
2021/03/16 09:15:25;;;;;;;9.57;5.50;;;11.70;96.70;;;;;;4975975;28;20038;-75
2021/03/16 09:18:05;;;;;;;14.55;6.00;;;11.80;96.70;;;;;;4992803;28;20046;-75
2021/03/16 09:20:42;;;;;;;17.73;6.97;;;11.90;96.70;;;;;;4989419;28;20587;-75
2021/03/16 09:23:20;;;;;;;46.42;25.65;;;11.90;96.70;;;;;;4973147;28;20050;-76
2021/03/16 09:25:57;;;;;;;45.17;25.02;;;12.00;96.70;;;;;;4977722;28;20068;-76
2021/03/16 09:28:40;;;;;;;64.47;35.80;;;12.20;96.60;;;;;;4962250;28;20069;-77
2021/03/16 09:31:20;;;;;;;78.95;43.63;;;12.30;95.40;;;;;;4977837;28;20038;-76
2021/03/16 09:33:57;;;;;;;85.97;48.50;;;12.30;94.90;;;;;;4991411;28;20385;-76
2021/03/16 09:36:35;;;;;;;54.58;31.88;;;12.50;95.10;;;;;;4960692;28;20062;-77
2021/03/16 09:39:24;;;;;;;30.17;16.67;;;12.70;94.00;;;;;;4973171;28;20504;-78
2021/03/16 09:42:05;;;;;;;21.60;12.45;;;12.80;92.30;;;;;;4972616;28;20038;-76
2021/03/16 09:44:36;;;;;;;14.73;8.77;;;12.90;89.40;;;;;;4956291;28;20104;-77
2021/03/16 09:47:05;;;;;;;11.05;6.25;;;13.00;87.60;;;;;;4989138;28;20042;-77
2021/03/16 09:49:35;;;;;;;9.48;4.68;;;13.10;85.80;;;;;;4979070;28;20057;-76
2021/03/16 09:52:06;;;;;;;6.03;3.70;;;13.10;84.40;;;;;;4975275;28;20038;-76
2021/03/16 09:54:37;;;;;;;6.13;3.40;;;13.20;81.60;;;;;;4978509;28;20046;-82
2021/03/16 09:57:06;;;;;;;5.53;3.42;;;13.30;80.30;;;;;;4974355;28;20058;-75
2021/03/16 09:59:36;;;;;;;8.52;3.42;;;13.50;78.80;;;;;;4961822;28;20144;-79
2021/03/16 10:02:04;;;;;;;4.88;2.60;;;13.60;77.20;;;;;;4975191;28;20042;-75
2021/03/16 10:04:48;;;;;;;5.43;2.08;;;13.70;75.10;;;;;;4957820;28;20050;-78
2021/03/16 10:07:31;;;;;;;8.52;4.82;;;13.80;72.50;;;;;;4979402;28;20662;-77
2021/03/16 10:10:08;;;;;;;4.85;2.47;;;13.80;75.20;;;;;;4966430;28;20062;-77
2021/03/16 10:12:36;;;;;;;3.70;2.20;;;13.60;74.10;;;;;;4990248;28;20417;-77
2021/03/16 10:15:07;;;;;;;3.53;2.00;;;13.70;72.40;;;;;;4957719;28;20066;-78
2021/03/16 10:17:41;;;;;;;4.80;2.70;;;13.70;73.20;;;;;;4967898;28;20108;-77
2021/03/16 10:20:12;;;;;;;6.45;2.60;;;13.80;74.30;;;;;;4976459;28;20132;-77
2021/03/16 10:22:39;;;;;;;5.13;2.67;;;13.80;70.60;;;;;;4972250;28;20180;-77
2021/03/16 10:25:10;;;;;;;4.93;2.22;;;14.00;70.50;;;;;;4958182;28;20149;-77
2021/03/16 10:27:38;;;;;;;4.75;2.20;;;14.20;71.00;;;;;;4972264;28;20136;-76
2021/03/16 10:30:08;;;;;;;6.65;2.40;;;14.30;71.20;;;;;;4970821;28;20038;-76
2021/03/16 10:32:38;;;;;;;5.10;2.30;;;14.50;69.90;;;;;;4971271;28;20056;-77
2021/03/16 10:35:07;;;;;;;6.97;2.20;;;14.60;69.60;;;;;;4976674;28;20046;-76
2021/03/16 10:37:43;;;;;;;4.13;2.35;;;14.70;69.60;;;;;;4972925;28;20051;-75
2021/03/16 10:40:13;;;;;;;6.28;4.00;;;14.80;68.80;;;;;;4978269;28;20420;-76
2021/03/16 10:42:41;;;;;;;6.57;3.33;;;14.70;68.50;;;;;;4979696;28;20496;-75
2021/03/16 10:45:08;;;;;;;5.65;2.45;;;14.80;66.40;;;;;;4979936;28;20038;-75
2021/03/16 10:47:36;;;;;;;7.70;3.70;;;14.90;62.30;;;;;;4978746;28;20137;-75
2021/03/16 10:50:06;;;;;;;7.32;3.58;;;15.00;63.20;;;;;;4981237;28;20046;-75
2021/03/16 10:52:33;;;;;;;7.10;4.07;;;15.20;62.70;;;;;;4973312;28;20042;-76
2021/03/16 10:55:01;;;;;;;9.68;5.45;;;15.30;62.10;;;;;;4976908;28;20108;-81
2021/03/16 10:57:29;;;;;;;5.47;2.70;;;15.30;63.20;;;;;;4974749;28;20547;-75
2021/03/16 10:59:57;;;;;;;5.10;2.33;;;15.40;64.20;;;;;;4975963;28;20453;-75
2021/03/16 11:02:24;;;;;;;5.22;2.63;;;15.30;64.50;;;;;;4984171;28;20508;-75
2021/03/16 11:04:52;;;;;;;4.88;2.33;;;15.20;63.70;;;;;;4979769;28;20129;-75
2021/03/16 11:07:19;;;;;;;4.85;2.63;;;15.30;63.60;;;;;;4974845;28;20080;-76
2021/03/16 11:09:47;;;;;;;5.72;2.65;;;15.30;64.70;;;;;;4976879;28;20034;-75
2021/03/16 11:12:17;;;;;;;6.22;2.42;;;15.40;64.10;;;;;;4962354;28;20451;-76
2021/03/16 11:14:46;;;;;;;4.25;1.90;;;15.50;62.50;;;;;;4981191;28;20045;-75
2021/03/16 11:17:19;;;;;;;4.93;1.50;;;15.80;61.50;;;;;;4976652;28;20054;-76
2021/03/16 11:19:47;;;;;;;2.95;1.70;;;16.10;57.70;;;;;;4978434;28;20428;-74
2021/03/16 11:22:15;;;;;;;3.03;1.58;;;16.30;59.30;;;;;;4968522;28;20042;-77
2021/03/16 11:24:43;;;;;;;3.88;1.30;;;16.20;59.90;;;;;;4961608;28;20499;-76
2021/03/16 11:27:10;;;;;;;4.18;1.30;;;16.30;58.50;;;;;;4981701;28;20520;-74
2021/03/16 11:29:38;;;;;;;3.50;1.38;;;16.40;59.60;;;;;;4979858;28;20038;-75
2021/03/16 11:32:06;;;;;;;4.53;1.27;;;16.50;59.60;;;;;;4969598;28;20112;-75
2021/03/16 11:34:44;;;;;;;9.85;1.75;;;16.50;58.30;;;;;;4978064;28;20062;-76
2021/03/16 11:37:22;;;;;;;2.45;1.17;;;16.40;58.00;;;;;;4974346;28;20038;-76
2021/03/16 11:39:59;;;;;;;2.65;1.05;;;16.40;58.40;;;;;;4962110;28;20567;-75
2021/03/16 11:42:36;;;;;;;2.45;1.10;;;16.50;58.00;;;;;;4965321;28;20382;-76
2021/03/16 11:45:16;;;;;;;2.97;1.02;;;16.20;57.60;;;;;;4975980;28;20121;-76
2021/03/16 11:47:54;;;;;;;3.28;0.88;;;16.10;58.60;;;;;;4962622;28;20098;-76
2021/03/16 11:50:31;;;;;;;0.80;0.50;;;16.10;57.10;;;;;;4967198;28;20047;-81
2021/03/16 11:53:08;;;;;;;0.80;0.50;;;16.20;55.70;;;;;;4962721;28;20061;-77
2021/03/16 11:55:45;;;;;;;2.72;0.80;;;16.40;54.50;;;;;;4979889;28;20058;-75
2021/03/16 11:58:22;;;;;;;3.15;1.00;;;16.60;54.10;;;;;;4974938;28;20046;-76
2021/03/16 12:00:59;;;;;;;1.58;0.68;;;16.60;52.80;;;;;;4971097;28;20050;-76
2021/03/16 12:03:37;;;;;;;1.10;0.80;;;16.70;53.30;;;;;;4973824;28;20042;-77
2021/03/16 12:06:14;;;;;;;1.20;0.40;;;16.80;53.40;;;;;;4980015;28;20058;-79
2021/03/16 12:08:51;;;;;;;2.65;0.65;;;16.80;53.40;;;;;;4963066;28;20508;-76
2021/03/16 12:11:30;;;;;;;1.27;0.57;;;16.70;51.60;;;;;;4978797;28;20386;-76
2021/03/16 12:14:07;;;;;;;1.65;0.70;;;16.70;51.70;;;;;;4976366;28;20279;-75
2021/03/16 12:16:44;;;;;;;2.60;0.75;;;17.00;51.90;;;;;;4979898;28;20500;-76
2021/03/16 12:19:24;;;;;;;1.30;0.60;;;17.30;52.60;;;;;;4966797;28;20221;-76
2021/03/16 12:22:01;;;;;;;1.85;0.50;;;17.30;50.50;;;;;;4979583;28;20081;-75
2021/03/16 12:24:39;;;;;;;1.63;0.55;;;17.50;50.10;;;;;;4975745;28;20512;-75
2021/03/16 12:27:18;;;;;;;1.67;0.30;;;17.80;50.60;;;;;;4974305;28;20587;-74
2021/03/16 12:29:55;;;;;;;1.63;0.45;;;17.70;48.30;;;;;;4975913;28;20042;-76
2021/03/16 12:32:32;;;;;;;2.67;0.30;;;17.60;47.00;;;;;;4976441;28;20053;-76
2021/03/16 12:35:13;;;;;;;0.30;0.20;;;17.40;46.00;;;;;;4982963;28;20065;-75
2021/03/16 12:37:50;;;;;;;0.22;0.10;;;17.50;47.00;;;;;;4978480;28;20613;-75
2021/03/16 12:40:28;;;;;;;1.13;0.20;;;17.50;46.10;;;;;;4975694;28;20046;-75
2021/03/16 12:43:05;;;;;;;0.98;0.20;;;17.60;46.80;;;;;;4974346;28;20570;-76
2021/03/16 12:45:43;;;;;;;1.00;0.10;;;17.80;47.30;;;;;;4979654;28;20054;-75
2021/03/16 12:48:20;;;;;;;0.55;0.17;;;17.80;45.80;;;;;;4980230;28;21227;-77
2021/03/16 12:50:58;;;;;;;3.40;1.10;;;17.80;45.00;;;;;;4977475;28;20309;-81
2021/03/16 12:53:35;;;;;;;1.50;0.20;;;17.80;46.10;;;;;;4976420;28;20073;-75
2021/03/16 12:56:12;;;;;;;0.20;0.10;;;18.00;46.10;;;;;;4973638;28;20048;-75
2021/03/16 12:58:49;;;;;;;0.22;0.20;;;18.20;45.70;;;;;;4982025;28;20938;-75
2021/03/16 13:01:26;;;;;;;0.30;0.10;;;18.20;44.00;;;;;;4978282;28;20061;-76
2021/03/16 13:04:03;;;;;;;0.32;0.10;;;18.20;44.80;;;;;;4977448;28;20042;-74
2021/03/16 13:06:41;;;;;;;0.22;0.10;;;18.10;44.30;;;;;;4970896;28;20113;-74
2021/03/16 13:09:18;;;;;;;0.60;0.20;;;17.70;46.10;;;;;;4974507;28;20031;-76
2021/03/16 13:11:55;;;;;;;0.75;0.40;;;17.50;45.20;;;;;;4978471;28;20512;-78
2021/03/16 13:14:32;;;;;;;0.10;0.10;;;17.40;46.30;;;;;;4964264;28;20412;-75
2021/03/16 13:17:09;;;;;;;0.60;0.10;;;17.20;46.60;;;;;;4975646;28;20117;-75
2021/03/16 13:19:46;;;;;;;0.82;0.30;;;16.90;44.30;;;;;;4978903;28;20053;-75
2021/03/16 13:22:25;;;;;;;3.35;0.20;;;16.70;45.80;;;;;;4968212;28;20177;-74
2021/03/16 13:25:02;;;;;;;1.73;0.60;;;16.50;46.50;;;;;;4977958;28;20105;-76
2021/03/16 13:27:39;;;;;;;4.97;2.85;;;16.50;46.90;;;;;;4998477;28;20042;-81
2021/03/16 13:30:17;;;;;;;3.53;2.42;;;16.60;48.00;;;;;;4976467;28;20026;-79
2021/03/16 13:32:54;;;;;;;9.95;5.93;;;16.60;46.50;;;;;;4961443;28;20051;-75